sensor_id;sensor_type;location;lat;lon;timestamp;pressure;altitude;pressure_sealevel;temperature;humidity
65760;BME280;52496;51.082;5.066;2023-07-13T00:00:14;101358.88;;;15.77;99.57
65760;BME280;52496;51.082;5.066;2023-07-13T00:02:47;101370.28;;;15.72;100.00
65760;BME280;52496;51.082;5.066;2023-07-13T00:05:18;101371.88;;;15.67;100.00
65760;BME280;52496;51.082;5.066;2023-07-13T00:07:50;101369.41;;;15.58;100.00
65760;BME280;52496;51.082;5.066;2023-07-13T00:10:21;101373.09;;;15.51;100.00
65760;BME280;52496;51.082;5.066;2023-07-13T00:12:52;101368.34;;;15.46;100.00
65760;BME280;52496;51.082;5.066;2023-07-13T00:15:26;101366.06;;;15.43;100.00
65760;BME280;52496;51.082;5.066;2023-07-13T00:17:56;101368.31;;;15.40;100.00
65760;BME280;52496;51.082;5.066;2023-07-13T00:20:27;101364.78;;;15.39;100.00
65760;BME280;52496;51.082;5.066;2023-07-13T00:22:57;101360.22;;;15.40;100.00
65760;BME280;52496;51.082;5.066;2023-07-13T00:25:28;101370.19;;;15.39;100.00
65760;BME280;52496;51.082;5.066;2023-07-13T00:27:58;101366.88;;;15.37;100.00
65760;BME280;52496;51.082;5.066;2023-07-13T00:30:29;101369.34;;;15.32;100.00
65760;BME280;52496;51.082;5.066;2023-07-13T00:33:00;101372.44;;;15.29;100.00
65760;BME280;52496;51.082;5.066;2023-07-13T00:35:31;101370.56;;;15.23;100.00
65760;BME280;52496;51.082;5.066;2023-07-13T00:38:02;101373.84;;;15.18;100.00
65760;BME280;52496;51.082;5.066;2023-07-13T00:40:33;101375.50;;;15.12;100.00
65760;BME280;52496;51.082;5.066;2023-07-13T00:43:09;101374.44;;;15.07;100.00
65760;BME280;52496;51.082;5.066;2023-07-13T00:48:19;101367.09;;;14.94;100.00
65760;BME280;52496;51.082;5.066;2023-07-13T00:50:52;101370.81;;;14.86;100.00
65760;BME280;52496;51.082;5.066;2023-07-13T00:53:27;101372.84;;;14.78;100.00
65760;BME280;52496;51.082;5.066;2023-07-13T00:55:59;101384.00;;;14.75;100.00
65760;BME280;52496;51.082;5.066;2023-07-13T00:58:31;101387.31;;;14.70;100.00
65760;BME280;52496;51.082;5.066;2023-07-13T01:01:02;101383.31;;;14.66;100.00
65760;BME280;52496;51.082;5.066;2023-07-13T01:03:34;101392.19;;;14.60;100.00
65760;BME280;52496;51.082;5.066;2023-07-13T01:06:05;101392.81;;;14.55;100.00
65760;BME280;52496;51.082;5.066;2023-07-13T01:08:35;101398.59;;;14.52;100.00
65760;BME280;52496;51.082;5.066;2023-07-13T01:11:06;101387.53;;;14.47;100.00
65760;BME280;52496;51.082;5.066;2023-07-13T01:13:38;101398.25;;;14.40;100.00
65760;BME280;52496;51.082;5.066;2023-07-13T01:16:17;101400.69;;;14.35;100.00
65760;BME280;52496;51.082;5.066;2023-07-13T01:18:49;101399.81;;;14.28;100.00
65760;BME280;52496;51.082;5.066;2023-07-13T01:21:20;101406.81;;;14.22;100.00
65760;BME280;52496;51.082;5.066;2023-07-13T01:23:51;101402.38;;;14.15;100.00
65760;BME280;52496;51.082;5.066;2023-07-13T01:26:21;101407.72;;;14.08;100.00
65760;BME280;52496;51.082;5.066;2023-07-13T01:28:52;101413.69;;;14.04;100.00
65760;BME280;52496;51.082;5.066;2023-07-13T01:31:22;101413.63;;;13.97;100.00
65760;BME280;52496;51.082;5.066;2023-07-13T01:33:54;101414.00;;;13.94;100.00
65760;BME280;52496;51.082;5.066;2023-07-13T01:36:25;101414.41;;;13.91;100.00
65760;BME280;52496;51.082;5.066;2023-07-13T01:38:55;101403.44;;;13.92;100.00
65760;BME280;52496;51.082;5.066;2023-07-13T01:41:26;101406.34;;;13.91;100.00
65760;BME280;52496;51.082;5.066;2023-07-13T01:43:56;101405.69;;;13.89;100.00
65760;BME280;52496;51.082;5.066;2023-07-13T01:46:27;101411.44;;;13.86;100.00
65760;BME280;52496;51.082;5.066;2023-07-13T01:48:57;101418.47;;;13.87;100.00
65760;BME280;52496;51.082;5.066;2023-07-13T01:51:28;101411.06;;;13.89;100.00
65760;BME280;52496;51.082;5.066;2023-07-13T01:53:59;101419.56;;;13.92;100.00
65760;BME280;52496;51.082;5.066;2023-07-13T01:56:29;101419.00;;;13.97;100.00
65760;BME280;52496;51.082;5.066;2023-07-13T01:58:59;101414.91;;;14.01;100.00
65760;BME280;52496;51.082;5.066;2023-07-13T02:01:30;101411.63;;;14.06;100.00
65760;BME280;52496;51.082;5.066;2023-07-13T02:04:01;101415.41;;;14.11;100.00
65760;BME280;52496;51.082;5.066;2023-07-13T02:06:32;101414.63;;;14.17;100.00
65760;BME280;52496;51.082;5.066;2023-07-13T02:09:02;101406.81;;;14.22;100.00
65760;BME280;52496;51.082;5.066;2023-07-13T02:11:33;101408.47;;;14.23;100.00
65760;BME280;52496;51.082;5.066;2023-07-13T02:14:03;101415.31;;;14.26;100.00
65760;BME280;52496;51.082;5.066;2023-07-13T02:16:34;101413.06;;;14.30;100.00
65760;BME280;52496;51.082;5.066;2023-07-13T02:19:04;101411.66;;;14.34;100.00
65760;BME280;52496;51.082;5.066;2023-07-13T02:21:36;101402.34;;;14.36;100.00
65760;BME280;52496;51.082;5.066;2023-07-13T02:24:07;101406.13;;;14.42;100.00
65760;BME280;52496;51.082;5.066;2023-07-13T02:26:37;101416.09;;;14.48;100.00
65760;BME280;52496;51.082;5.066;2023-07-13T02:29:08;101401.06;;;14.54;100.00
65760;BME280;52496;51.082;5.066;2023-07-13T02:31:38;101403.19;;;14.58;100.00
65760;BME280;52496;51.082;5.066;2023-07-13T02:34:09;101409.81;;;14.62;100.00
65760;BME280;52496;51.082;5.066;2023-07-13T02:36:39;101417.09;;;14.68;100.00
65760;BME280;52496;51.082;5.066;2023-07-13T02:39:12;101415.66;;;14.73;100.00
65760;BME280;52496;51.082;5.066;2023-07-13T02:41:42;101417.13;;;14.75;100.00
65760;BME280;52496;51.082;5.066;2023-07-13T02:44:13;101419.44;;;14.78;100.00
65760;BME280;52496;51.082;5.066;2023-07-13T02:46:44;101410.13;;;14.81;100.00
65760;BME280;52496;51.082;5.066;2023-07-13T02:49:15;101411.38;;;14.85;100.00
65760;BME280;52496;51.082;5.066;2023-07-13T02:51:45;101413.50;;;14.89;100.00
65760;BME280;52496;51.082;5.066;2023-07-13T02:54:16;101412.69;;;14.96;100.00
65760;BME280;52496;51.082;5.066;2023-07-13T02:56:46;101419.78;;;15.03;100.00
65760;BME280;52496;51.082;5.066;2023-07-13T02:59:17;101421.06;;;15.07;100.00
65760;BME280;52496;51.082;5.066;2023-07-13T03:01:48;101419.00;;;15.09;100.00
65760;BME280;52496;51.082;5.066;2023-07-13T03:04:18;101417.75;;;15.12;100.00
65760;BME280;52496;51.082;5.066;2023-07-13T03:06:49;101423.78;;;15.14;100.00
65760;BME280;52496;51.082;5.066;2023-07-13T03:09:20;101431.03;;;15.13;100.00
65760;BME280;52496;51.082;5.066;2023-07-13T03:11:54;101428.97;;;15.16;100.00
65760;BME280;52496;51.082;5.066;2023-07-13T03:14:25;101434.38;;;15.16;100.00
65760;BME280;52496;51.082;5.066;2023-07-13T03:16:56;101434.16;;;15.17;100.00
65760;BME280;52496;51.082;5.066;2023-07-13T03:19:26;101436.66;;;15.19;100.00
65760;BME280;52496;51.082;5.066;2023-07-13T03:21:57;101432.91;;;15.20;100.00
65760;BME280;52496;51.082;5.066;2023-07-13T03:24:27;101440.59;;;15.23;100.00
65760;BME280;52496;51.082;5.066;2023-07-13T03:26:58;101436.25;;;15.22;100.00
65760;BME280;52496;51.082;5.066;2023-07-13T03:29:28;101432.53;;;15.23;100.00
65760;BME280;52496;51.082;5.066;2023-07-13T03:31:59;101443.47;;;15.21;100.00
65760;BME280;52496;51.082;5.066;2023-07-13T03:34:30;101435.63;;;15.20;100.00
65760;BME280;52496;51.082;5.066;2023-07-13T03:37:01;101431.03;;;15.13;100.00
65760;BME280;52496;51.082;5.066;2023-07-13T03:39:31;101434.31;;;15.09;100.00
65760;BME280;52496;51.082;5.066;2023-07-13T03:42:01;101448.00;;;15.07;100.00
65760;BME280;52496;51.082;5.066;2023-07-13T03:44:32;101451.72;;;15.06;100.00
65760;BME280;52496;51.082;5.066;2023-07-13T03:47:02;101437.22;;;15.07;100.00
65760;BME280;52496;51.082;5.066;2023-07-13T03:49:33;101444.25;;;15.08;100.00
65760;BME280;52496;51.082;5.066;2023-07-13T03:52:04;101456.31;;;15.12;100.00
65760;BME280;52496;51.082;5.066;2023-07-13T03:54:34;101453.22;;;15.16;100.00
65760;BME280;52496;51.082;5.066;2023-07-13T03:57:05;101446.78;;;15.17;100.00
65760;BME280;52496;51.082;5.066;2023-07-13T03:59:36;101448.03;;;15.21;100.00
65760;BME280;52496;51.082;5.066;2023-07-13T04:02:07;101454.06;;;15.23;100.00
65760;BME280;52496;51.082;5.066;2023-07-13T04:04:37;101454.31;;;15.28;100.00
65760;BME280;52496;51.082;5.066;2023-07-13T04:07:10;101455.56;;;15.32;100.00
65760;BME280;52496;51.082;5.066;2023-07-13T04:09:41;101458.50;;;15.37;100.00
65760;BME280;52496;51.082;5.066;2023-07-13T04:12:11;101459.75;;;15.41;100.00
65760;BME280;52496;51.082;5.066;2023-07-13T04:14:42;101463.69;;;15.45;100.00
65760;BME280;52496;51.082;5.066;2023-07-13T04:17:12;101469.31;;;15.50;100.00
65760;BME280;52496;51.082;5.066;2023-07-13T04:19:43;101461.47;;;15.55;100.00
65760;BME280;52496;51.082;5.066;2023-07-13T04:22:13;101467.28;;;15.59;100.00
65760;BME280;52496;51.082;5.066;2023-07-13T04:24:43;101469.34;;;15.64;100.00
65760;BME280;52496;51.082;5.066;2023-07-13T04:27:14;101472.31;;;15.69;100.00
65760;BME280;52496;51.082;5.066;2023-07-13T04:29:44;101473.56;;;15.73;100.00
65760;BME280;52496;51.082;5.066;2023-07-13T04:32:15;101476.91;;;15.75;100.00
65760;BME280;52496;51.082;5.066;2023-07-13T04:34:45;101480.84;;;15.79;100.00
65760;BME280;52496;51.082;5.066;2023-07-13T04:37:15;101483.13;;;15.82;100.00
65760;BME280;52496;51.082;5.066;2023-07-13T04:39:46;101481.06;;;15.84;100.00
65760;BME280;52496;51.082;5.066;2023-07-13T04:42:17;101474.44;;;15.87;100.00
65760;BME280;52496;51.082;5.066;2023-07-13T04:44:51;101489.81;;;15.93;100.00
65760;BME280;52496;51.082;5.066;2023-07-13T04:47:21;101486.50;;;15.97;100.00
65760;BME280;52496;51.082;5.066;2023-07-13T04:49:52;101490.66;;;16.00;100.00
65760;BME280;52496;51.082;5.066;2023-07-13T04:52:22;101493.16;;;16.01;100.00
65760;BME280;52496;51.082;5.066;2023-07-13T04:54:52;101490.66;;;16.06;100.00
65760;BME280;52496;51.082;5.066;2023-07-13T04:57:23;101497.31;;;16.11;100.00
65760;BME280;52496;51.082;5.066;2023-07-13T04:59:53;101497.75;;;16.14;100.00
65760;BME280;52496;51.082;5.066;2023-07-13T05:02:24;101500.84;;;16.18;100.00
65760;BME280;52496;51.082;5.066;2023-07-13T05:04:54;101500.44;;;16.21;100.00
65760;BME280;52496;51.082;5.066;2023-07-13T05:07:25;101500.84;;;16.24;100.00
65760;BME280;52496;51.082;5.066;2023-07-13T05:09:56;101506.47;;;16.29;100.00
65760;BME280;52496;51.082;5.066;2023-07-13T05:12:27;101508.53;;;16.34;100.00
65760;BME280;52496;51.082;5.066;2023-07-13T05:14:57;101513.56;;;16.37;100.00
65760;BME280;52496;51.082;5.066;2023-07-13T05:17:28;101514.78;;;16.41;100.00
65760;BME280;52496;51.082;5.066;2023-07-13T05:19:58;101515.44;;;16.43;100.00
65760;BME280;52496;51.082;5.066;2023-07-13T05:22:28;101518.13;;;16.50;100.00
65760;BME280;52496;51.082;5.066;2023-07-13T05:24:59;101506.91;;;16.53;100.00
65760;BME280;52496;51.082;5.066;2023-07-13T05:27:29;101515.84;;;16.60;100.00
65760;BME280;52496;51.082;5.066;2023-07-13T05:30:00;101516.88;;;16.66;100.00
65760;BME280;52496;51.082;5.066;2023-07-13T05:32:31;101514.59;;;16.69;100.00
65760;BME280;52496;51.082;5.066;2023-07-13T05:35:02;101513.13;;;16.73;100.00
65760;BME280;52496;51.082;5.066;2023-07-13T05:37:32;101521.06;;;16.82;100.00
65760;BME280;52496;51.082;5.066;2023-07-13T05:40:03;101514.41;;;16.84;100.00
65760;BME280;52496;51.082;5.066;2023-07-13T05:42:34;101526.44;;;16.88;100.00
65760;BME280;52496;51.082;5.066;2023-07-13T05:45:04;101535.81;;;16.92;100.00
65760;BME280;52496;51.082;5.066;2023-07-13T05:47:35;101530.59;;;16.97;100.00
65760;BME280;52496;51.082;5.066;2023-07-13T05:50:06;101527.91;;;17.04;100.00
65760;BME280;52496;51.082;5.066;2023-07-13T05:52:37;101528.91;;;17.10;100.00
65760;BME280;52496;51.082;5.066;2023-07-13T05:55:08;101531.81;;;17.15;100.00
65760;BME280;52496;51.082;5.066;2023-07-13T05:57:38;101532.63;;;17.22;100.00
65760;BME280;52496;51.082;5.066;2023-07-13T06:00:09;101532.19;;;17.32;100.00
65760;BME280;52496;51.082;5.066;2023-07-13T06:02:40;101532.38;;;17.37;100.00
65760;BME280;52496;51.082;5.066;2023-07-13T06:05:10;101534.22;;;17.43;100.00
65760;BME280;52496;51.082;5.066;2023-07-13T06:07:41;101533.78;;;17.53;100.00
65760;BME280;52496;51.082;5.066;2023-07-13T06:10:12;101544.31;;;17.67;100.00
65760;BME280;52496;51.082;5.066;2023-07-13T06:12:42;101550.75;;;17.73;100.00
65760;BME280;52496;51.082;5.066;2023-07-13T06:15:13;101547.03;;;17.74;100.00
65760;BME280;52496;51.082;5.066;2023-07-13T06:17:43;101554.91;;;17.82;100.00
65760;BME280;52496;51.082;5.066;2023-07-13T06:20:14;101550.91;;;17.92;100.00
65760;BME280;52496;51.082;5.066;2023-07-13T06:22:45;101554.44;;;17.99;100.00
65760;BME280;52496;51.082;5.066;2023-07-13T06:25:15;101558.94;;;18.11;100.00
65760;BME280;52496;51.082;5.066;2023-07-13T06:27:49;101560.53;;;18.19;100.00
65760;BME280;52496;51.082;5.066;2023-07-13T06:30:19;101567.97;;;18.30;100.00
65760;BME280;52496;51.082;5.066;2023-07-13T06:32:50;101566.25;;;18.43;100.00
65760;BME280;52496;51.082;5.066;2023-07-13T06:35:20;101564.75;;;18.47;100.00
65760;BME280;52496;51.082;5.066;2023-07-13T06:37:51;101567.63;;;18.52;100.00
65760;BME280;52496;51.082;5.066;2023-07-13T06:40:21;101572.16;;;18.58;100.00
65760;BME280;52496;51.082;5.066;2023-07-13T06:42:52;101575.75;;;18.52;100.00
65760;BME280;52496;51.082;5.066;2023-07-13T06:45:23;101567.63;;;18.52;100.00
65760;BME280;52496;51.082;5.066;2023-07-13T06:47:53;101567.81;;;18.57;100.00
65760;BME280;52496;51.082;5.066;2023-07-13T06:50:24;101577.78;;;18.63;100.00
65760;BME280;52496;51.082;5.066;2023-07-13T06:52:54;101572.28;;;18.70;100.00
65760;BME280;52496;51.082;5.066;2023-07-13T06:55:25;101577.72;;;18.70;100.00
65760;BME280;52496;51.082;5.066;2023-07-13T06:57:57;101584.56;;;18.72;100.00
65760;BME280;52496;51.082;5.066;2023-07-13T07:00:28;101580.56;;;18.82;100.00
65760;BME280;52496;51.082;5.066;2023-07-13T07:02:58;101574.56;;;18.98;100.00
65760;BME280;52496;51.082;5.066;2023-07-13T07:05:29;101581.38;;;19.07;100.00
65760;BME280;52496;51.082;5.066;2023-07-13T07:07:59;101582.31;;;19.19;100.00
65760;BME280;52496;51.082;5.066;2023-07-13T07:10:30;101588.50;;;19.27;100.00
65760;BME280;52496;51.082;5.066;2023-07-13T07:13:02;101580.50;;;19.32;100.00
65760;BME280;52496;51.082;5.066;2023-07-13T07:15:34;101581.88;;;19.41;100.00
65760;BME280;52496;51.082;5.066;2023-07-13T07:18:04;101584.91;;;19.51;100.00
65760;BME280;52496;51.082;5.066;2023-07-13T07:20:35;101580.53;;;19.68;100.00
65760;BME280;52496;51.082;5.066;2023-07-13T07:23:06;101588.53;;;19.82;100.00
65760;BME280;52496;51.082;5.066;2023-07-13T07:25:36;101594.56;;;19.84;98.69
65760;BME280;52496;51.082;5.066;2023-07-13T07:28:14;101589.97;;;19.84;100.00
65760;BME280;52496;51.082;5.066;2023-07-13T07:30:45;101591.31;;;19.93;99.24
65760;BME280;52496;51.082;5.066;2023-07-13T07:33:16;101593.03;;;20.06;98.18
65760;BME280;52496;51.082;5.066;2023-07-13T07:35:47;101592.69;;;20.14;97.99
65760;BME280;52496;51.082;5.066;2023-07-13T07:38:18;101596.84;;;20.17;98.48
65760;BME280;52496;51.082;5.066;2023-07-13T07:40:49;101600.38;;;20.17;97.44
65760;BME280;52496;51.082;5.066;2023-07-13T07:43:19;101591.56;;;20.22;96.49
65760;BME280;52496;51.082;5.066;2023-07-13T07:45:50;101588.22;;;20.20;95.37
65760;BME280;52496;51.082;5.066;2023-07-13T07:48:20;101593.81;;;20.25;95.78
65760;BME280;52496;51.082;5.066;2023-07-13T07:50:51;101598.22;;;20.38;96.38
65760;BME280;52496;51.082;5.066;2023-07-13T07:53:21;101604.72;;;20.37;94.88
65760;BME280;52496;51.082;5.066;2023-07-13T07:55:52;101601.75;;;20.38;95.48
65760;BME280;52496;51.082;5.066;2023-07-13T07:58:23;101605.91;;;20.41;94.61
65760;BME280;52496;51.082;5.066;2023-07-13T08:00:53;101608.03;;;20.39;94.15
65760;BME280;52496;51.082;5.066;2023-07-13T08:03:24;101605.19;;;20.34;94.62
65760;BME280;52496;51.082;5.066;2023-07-13T08:05:54;101601.84;;;20.32;95.05
65760;BME280;52496;51.082;5.066;2023-07-13T08:08:25;101604.25;;;20.40;95.39
65760;BME280;52496;51.082;5.066;2023-07-13T08:10:55;101605.28;;;20.57;94.68
65760;BME280;52496;51.082;5.066;2023-07-13T08:13:26;101602.34;;;20.71;94.02
65760;BME280;52496;51.082;5.066;2023-07-13T08:15:56;101604.38;;;20.87;92.68
65760;BME280;52496;51.082;5.066;2023-07-13T08:18:27;101592.00;;;21.03;92.76
65760;BME280;52496;51.082;5.066;2023-07-13T08:21:08;101598.50;;;21.25;91.24
65760;BME280;52496;51.082;5.066;2023-07-13T08:23:38;101602.41;;;21.41;88.75
65760;BME280;52496;51.082;5.066;2023-07-13T08:26:09;101601.09;;;21.56;90.46
65760;BME280;52496;51.082;5.066;2023-07-13T08:28:40;101603.19;;;21.77;86.48
65760;BME280;52496;51.082;5.066;2023-07-13T08:31:11;101600.97;;;22.03;85.92
65760;BME280;52496;51.082;5.066;2023-07-13T08:33:41;101594.59;;;22.37;85.37
65760;BME280;52496;51.082;5.066;2023-07-13T08:36:12;101597.84;;;22.68;84.77
65760;BME280;52496;51.082;5.066;2023-07-13T08:38:42;101605.97;;;22.97;80.29
65760;BME280;52496;51.082;5.066;2023-07-13T08:41:17;101602.00;;;23.04;81.07
65760;BME280;52496;51.082;5.066;2023-07-13T08:43:51;101603.16;;;23.25;78.01
65760;BME280;52496;51.082;5.066;2023-07-13T08:46:40;101608.69;;;23.52;78.67
65760;BME280;52496;51.082;5.066;2023-07-13T08:49:19;101609.81;;;23.34;75.24
65760;BME280;52496;51.082;5.066;2023-07-13T08:54:38;101596.19;;;23.56;75.54
65760;BME280;52496;51.082;5.066;2023-07-13T08:57:15;101599.50;;;23.58;76.81
65760;BME280;52496;51.082;5.066;2023-07-13T08:59:47;101596.00;;;23.63;75.63
65760;BME280;52496;51.082;5.066;2023-07-13T09:02:28;101588.66;;;23.86;76.39
65760;BME280;52496;51.082;5.066;2023-07-13T09:05:03;101600.41;;;24.08;75.00
65760;BME280;52496;51.082;5.066;2023-07-13T09:10:45;101584.44;;;24.49;71.63
65760;BME280;52496;51.082;5.066;2023-07-13T09:13:37;101599.47;;;24.24;71.25
65760;BME280;52496;51.082;5.066;2023-07-13T09:16:10;101603.59;;;24.00;73.62
65760;BME280;52496;51.082;5.066;2023-07-13T09:18:45;101602.81;;;23.83;72.24
65760;BME280;52496;51.082;5.066;2023-07-13T09:21:30;101598.88;;;23.73;72.11
65760;BME280;52496;51.082;5.066;2023-07-13T09:24:37;101594.16;;;23.47;74.35
65760;BME280;52496;51.082;5.066;2023-07-13T09:27:24;101597.06;;;23.40;74.42
65760;BME280;52496;51.082;5.066;2023-07-13T09:30:38;101599.16;;;23.55;74.32
65760;BME280;52496;51.082;5.066;2023-07-13T09:33:09;101597.41;;;23.66;73.89
65760;BME280;52496;51.082;5.066;2023-07-13T09:35:39;101592.53;;;23.90;72.73
65760;BME280;52496;51.082;5.066;2023-07-13T09:38:15;101597.00;;;23.96;72.21
65760;BME280;52496;51.082;5.066;2023-07-13T09:40:56;101596.34;;;23.89;73.48
65760;BME280;52496;51.082;5.066;2023-07-13T09:43:29;101598.53;;;23.87;72.95
65760;BME280;52496;51.082;5.066;2023-07-13T09:46:00;101595.41;;;23.78;71.12
65760;BME280;52496;51.082;5.066;2023-07-13T09:48:35;101588.81;;;23.74;72.02
65760;BME280;52496;51.082;5.066;2023-07-13T09:51:13;101591.91;;;23.83;71.38
65760;BME280;52496;51.082;5.066;2023-07-13T09:53:44;101592.53;;;23.90;70.89
65760;BME280;52496;51.082;5.066;2023-07-13T09:56:22;101594.38;;;24.33;70.04
65760;BME280;52496;51.082;5.066;2023-07-13T09:58:53;101608.63;;;24.62;67.69
65760;BME280;52496;51.082;5.066;2023-07-13T10:01:38;101602.31;;;24.94;67.54
65760;BME280;52496;51.082;5.066;2023-07-13T10:04:12;101598.47;;;24.90;67.81
65760;BME280;52496;51.082;5.066;2023-07-13T10:06:44;101599.47;;;24.79;66.47
65760;BME280;52496;51.082;5.066;2023-07-13T10:09:16;101612.72;;;24.60;64.98
65760;BME280;52496;51.082;5.066;2023-07-13T10:11:50;101599.81;;;24.55;64.13
65760;BME280;52496;51.082;5.066;2023-07-13T10:14:22;101609.88;;;24.82;65.92
65760;BME280;52496;51.082;5.066;2023-07-13T10:17:02;101604.03;;;25.05;65.41
65760;BME280;52496;51.082;5.066;2023-07-13T10:19:35;101603.56;;;25.13;62.80
65760;BME280;52496;51.082;5.066;2023-07-13T10:22:21;101599.31;;;25.33;61.62
65760;BME280;52496;51.082;5.066;2023-07-13T10:24:54;101603.84;;;25.59;60.58
65760;BME280;52496;51.082;5.066;2023-07-13T10:27:36;101607.94;;;25.57;59.17
65760;BME280;52496;51.082;5.066;2023-07-13T10:32:43;101605.00;;;25.74;60.66
65760;BME280;52496;51.082;5.066;2023-07-13T10:35:15;101614.28;;;25.62;58.76
65760;BME280;52496;51.082;5.066;2023-07-13T10:37:55;101602.59;;;25.30;59.24
65760;BME280;52496;51.082;5.066;2023-07-13T10:40:39;101612.97;;;25.28;58.92
65760;BME280;52496;51.082;5.066;2023-07-13T10:43:24;101601.13;;;25.64;60.50
65760;BME280;52496;51.082;5.066;2023-07-13T10:45:57;101608.22;;;25.60;59.43
65760;BME280;52496;51.082;5.066;2023-07-13T10:48:30;101603.31;;;25.68;57.70
65760;BME280;52496;51.082;5.066;2023-07-13T10:51:04;101600.22;;;26.06;58.04
65760;BME280;52496;51.082;5.066;2023-07-13T10:53:38;101608.47;;;26.27;57.48
65760;BME280;52496;51.082;5.066;2023-07-13T10:56:24;101610.44;;;26.42;57.02
65760;BME280;52496;51.082;5.066;2023-07-13T11:04:17;101622.25;;;27.09;52.03
65760;BME280;52496;51.082;5.066;2023-07-13T11:06:50;101613.47;;;26.91;52.18
65760;BME280;52496;51.082;5.066;2023-07-13T11:12:00;101603.63;;;26.70;53.72
65760;BME280;52496;51.082;5.066;2023-07-13T11:14:34;101604.66;;;26.48;54.60
65760;BME280;52496;51.082;5.066;2023-07-13T11:17:35;101609.66;;;26.51;54.62
65760;BME280;52496;51.082;5.066;2023-07-13T11:22:46;101594.81;;;27.09;54.32
65760;BME280;52496;51.082;5.066;2023-07-13T11:36:19;101597.03;;;26.61;50.83
65760;BME280;52496;51.082;5.066;2023-07-13T11:39:29;101605.75;;;26.47;50.30
65760;BME280;52496;51.082;5.066;2023-07-13T11:42:03;101593.09;;;26.16;52.56
65760;BME280;52496;51.082;5.066;2023-07-13T11:44:42;101602.91;;;25.91;53.10
65760;BME280;52496;51.082;5.066;2023-07-13T11:47:21;101623.25;;;26.16;53.50
65760;BME280;52496;51.082;5.066;2023-07-13T11:49:54;101609.22;;;26.02;52.02
65760;BME280;52496;51.082;5.066;2023-07-13T11:52:33;101614.31;;;25.73;53.29
65760;BME280;52496;51.082;5.066;2023-07-13T11:55:15;101615.91;;;25.63;54.04
65760;BME280;52496;51.082;5.066;2023-07-13T11:57:57;101613.09;;;26.06;53.96
65760;BME280;52496;51.082;5.066;2023-07-13T12:00:31;101613.47;;;26.66;54.04
65760;BME280;52496;51.082;5.066;2023-07-13T12:03:04;101611.56;;;26.66;51.17
65760;BME280;52496;51.082;5.066;2023-07-13T12:05:35;101616.16;;;26.35;52.66
65760;BME280;52496;51.082;5.066;2023-07-13T12:08:10;101621.50;;;25.89;53.91
65760;BME280;52496;51.082;5.066;2023-07-13T12:10:44;101626.16;;;25.36;54.42
65760;BME280;52496;51.082;5.066;2023-07-13T12:13:17;101625.66;;;25.02;55.05
65760;BME280;52496;51.082;5.066;2023-07-13T12:15:48;101618.56;;;24.73;56.42
65760;BME280;52496;51.082;5.066;2023-07-13T12:18:21;101634.88;;;24.63;57.48
65760;BME280;52496;51.082;5.066;2023-07-13T12:20:58;101625.50;;;24.54;57.76
65760;BME280;52496;51.082;5.066;2023-07-13T12:23:33;101628.19;;;24.49;58.17
65760;BME280;52496;51.082;5.066;2023-07-13T12:26:06;101630.88;;;24.44;57.10
65760;BME280;52496;51.082;5.066;2023-07-13T12:28:43;101631.94;;;24.43;56.60
65760;BME280;52496;51.082;5.066;2023-07-13T12:36:50;101627.41;;;24.04;56.25
65760;BME280;52496;51.082;5.066;2023-07-13T12:39:35;101631.66;;;24.17;57.68
65760;BME280;52496;51.082;5.066;2023-07-13T12:42:28;101633.13;;;24.52;58.03
65760;BME280;52496;51.082;5.066;2023-07-13T12:45:41;101624.00;;;24.68;56.89
65760;BME280;52496;51.082;5.066;2023-07-13T12:48:05;101625.69;;;24.75;57.67
65760;BME280;52496;51.082;5.066;2023-07-13T12:50:42;101639.31;;;24.69;58.79
65760;BME280;52496;51.082;5.066;2023-07-13T12:53:16;101672.94;;;24.43;60.59
65760;BME280;52496;51.082;5.066;2023-07-13T12:55:56;101700.66;;;23.69;69.08
65760;BME280;52496;51.082;5.066;2023-07-13T12:58:41;101725.38;;;22.49;79.25
65760;BME280;52496;51.082;5.066;2023-07-13T13:01:13;101746.78;;;21.46;87.56
65760;BME280;52496;51.082;5.066;2023-07-13T13:03:49;101744.66;;;20.76;92.95
65760;BME280;52496;51.082;5.066;2023-07-13T13:06:29;101758.66;;;20.25;94.95
65760;BME280;52496;51.082;5.066;2023-07-13T13:09:00;101743.09;;;19.95;100.00
65760;BME280;52496;51.082;5.066;2023-07-13T13:11:32;101751.66;;;19.74;100.00
65760;BME280;52496;51.082;5.066;2023-07-13T13:14:02;101732.53;;;19.62;100.00
65760;BME280;52496;51.082;5.066;2023-07-13T13:16:46;101734.88;;;19.58;100.00
65760;BME280;52496;51.082;5.066;2023-07-13T13:19:24;101728.63;;;19.58;100.00
65760;BME280;52496;51.082;5.066;2023-07-13T13:21:56;101731.50;;;19.63;100.00
65760;BME280;52496;51.082;5.066;2023-07-13T13:24:28;101731.69;;;19.68;100.00
65760;BME280;52496;51.082;5.066;2023-07-13T13:26:59;101720.63;;;19.69;100.00
65760;BME280;52496;51.082;5.066;2023-07-13T13:29:31;101721.19;;;19.71;100.00
65760;BME280;52496;51.082;5.066;2023-07-13T13:32:03;101719.09;;;19.74;100.00
65760;BME280;52496;51.082;5.066;2023-07-13T13:34:35;101716.09;;;19.82;100.00
65760;BME280;52496;51.082;5.066;2023-07-13T13:37:21;101711.44;;;19.89;100.00
65760;BME280;52496;51.082;5.066;2023-07-13T13:39:52;101703.75;;;20.04;100.00
65760;BME280;52496;51.082;5.066;2023-07-13T13:42:23;101707.00;;;20.13;100.00
65760;BME280;52496;51.082;5.066;2023-07-13T13:44:55;101710.59;;;20.25;100.00
65760;BME280;52496;51.082;5.066;2023-07-13T13:47:30;101711.72;;;20.36;100.00
65760;BME280;52496;51.082;5.066;2023-07-13T13:50:04;101714.91;;;20.33;100.00